Time;durP1;ratioP1;P1;durP2;ratioP2;P2;SDS_P1;SDS_P2;PMS_P1;PMS_P2;Temp;Humidity;BMP_temperature;BMP_pressure;BME280_temperature;BME280_humidity;BME280_pressure;Samples;Min_cycle;Max_cycle;Signal;HPM_P1;HPM_P2
2023/10/05 00:04:24;;;;;;;5.60;2.60;;;19.10;78.90;;;;;;5052657;28;20037;-73
2023/10/05 00:06:53;;;;;;;5.15;2.80;;;19.10;78.90;;;;;;5052537;28;20025;-72
2023/10/05 00:09:20;;;;;;;5.38;2.97;;;19.10;78.90;;;;;;5052164;28;20021;-73
2023/10/05 00:11:46;;;;;;;6.53;2.80;;;19.10;79.20;;;;;;5052432;28;20021;-73
2023/10/05 00:14:12;;;;;;;6.53;2.47;;;19.00;79.30;;;;;;5052469;28;20029;-73
2023/10/05 00:16:39;;;;;;;6.55;2.67;;;19.00;79.30;;;;;;5054559;28;20475;-72
2023/10/05 00:19:10;;;;;;;9.68;2.45;;;19.00;79.60;;;;;;5056362;28;20500;-73
2023/10/05 00:21:39;;;;;;;5.85;2.88;;;19.00;79.80;;;;;;5056297;28;20056;-73
2023/10/05 00:24:08;;;;;;;6.88;2.70;;;19.00;79.90;;;;;;5056282;28;20117;-72
2023/10/05 00:26:37;;;;;;;6.50;3.00;;;18.90;79.90;;;;;;5056464;28;20017;-72
2023/10/05 00:31:39;;;;;;;6.05;2.83;;;18.90;80.00;;;;;;5054955;28;20024;-73
2023/10/05 00:34:13;;;;;;;4.63;2.70;;;18.90;79.90;;;;;;5053537;28;20496;-73
2023/10/05 00:36:45;;;;;;;5.28;2.88;;;18.80;80.00;;;;;;5053543;28;20036;-73
2023/10/05 00:39:11;;;;;;;11.68;2.67;;;18.80;80.10;;;;;;5055659;28;20017;-71
2023/10/05 00:41:37;;;;;;;5.68;2.30;;;18.80;80.10;;;;;;5056507;28;20439;-73
2023/10/05 00:44:05;;;;;;;8.05;2.65;;;18.80;79.70;;;;;;5071284;28;20027;-72
2023/10/05 00:46:32;;;;;;;5.00;2.60;;;18.80;79.80;;;;;;5055867;28;20489;-73
2023/10/05 00:49:17;;;;;;;6.68;2.65;;;18.80;80.30;;;;;;5056198;28;20033;-73
2023/10/05 00:51:54;;;;;;;5.93;2.95;;;18.70;80.20;;;;;;5055952;28;20013;-73
2023/10/05 00:54:28;;;;;;;5.53;2.25;;;18.70;80.00;;;;;;5056042;28;20021;-73
2023/10/05 00:56:55;;;;;;;4.30;2.35;;;18.70;79.70;;;;;;5055826;28;20029;-73
2023/10/05 00:59:21;;;;;;;4.40;2.50;;;18.60;79.90;;;;;;5052462;28;20476;-73
2023/10/05 01:10:42;;;;;;;9.75;2.88;;;18.60;80.00;;;;;;5055229;28;20095;-72
2023/10/05 01:12:45;;;;;;;5.10;2.53;;;18.60;80.00;;;;;;5047463;28;20033;-72
2023/10/05 01:15:19;;;;;;;5.93;2.42;;;18.60;80.40;;;;;;5055448;28;20056;-73
2023/10/05 01:17:45;;;;;;;4.72;2.30;;;18.50;80.60;;;;;;5055344;28;20025;-73
2023/10/05 01:20:22;;;;;;;5.13;2.45;;;18.50;80.70;;;;;;5054956;28;20086;-72
2023/10/05 01:22:57;;;;;;;5.07;2.40;;;18.40;80.80;;;;;;5055380;28;20436;-72
2023/10/05 01:25:26;;;;;;;4.85;2.30;;;18.50;80.90;;;;;;5055319;28;20021;-72
2023/10/05 01:27:52;;;;;;;5.43;2.30;;;18.40;80.90;;;;;;5053790;28;20025;-72
2023/10/05 01:30:19;;;;;;;4.70;2.35;;;18.40;81.10;;;;;;5055320;28;20082;-73
2023/10/05 01:32:47;;;;;;;6.72;2.40;;;18.40;81.40;;;;;;5055172;28;20031;-72
2023/10/05 01:35:15;;;;;;;8.77;2.30;;;18.30;81.40;;;;;;5054608;28;20067;-72
2023/10/05 01:37:44;;;;;;;5.82;2.50;;;18.30;81.70;;;;;;5054741;28;20055;-72
2023/10/05 01:42:47;;;;;;;4.22;2.58;;;18.20;81.80;;;;;;5054777;28;20481;-73
2023/10/05 01:45:16;;;;;;;8.52;2.67;;;18.20;81.80;;;;;;5055109;28;20075;-72
2023/10/05 01:47:44;;;;;;;7.22;2.60;;;18.20;82.00;;;;;;5054667;28;20052;-72
2023/10/05 01:50:22;;;;;;;6.53;2.70;;;18.10;82.00;;;;;;5054983;28;20419;-72
2023/10/05 01:53:07;;;;;;;5.88;2.67;;;18.10;81.80;;;;;;5054894;28;20053;-74
2023/10/05 01:55:37;;;;;;;4.05;2.47;;;18.10;81.50;;;;;;5054614;28;20377;-72
2023/10/05 01:58:05;;;;;;;4.18;2.17;;;18.10;81.60;;;;;;5054762;28;20029;-73
2023/10/05 02:00:32;;;;;;;7.95;2.63;;;18.10;81.50;;;;;;5069955;28;20116;-72
2023/10/05 02:02:58;;;;;;;4.88;2.20;;;18.10;81.10;;;;;;5054811;28;20029;-72
2023/10/05 02:05:23;;;;;;;5.47;2.47;;;18.10;81.50;;;;;;5054674;28;20469;-72
2023/10/05 02:07:50;;;;;;;5.78;2.53;;;18.10;80.70;;;;;;5054632;28;20051;-73
2023/10/05 02:10:22;;;;;;;4.72;2.58;;;18.10;80.60;;;;;;5070160;28;20032;-72
2023/10/05 02:12:52;;;;;;;4.35;2.38;;;18.10;80.40;;;;;;5054505;28;20029;-72
2023/10/05 02:15:19;;;;;;;7.40;2.53;;;18.10;80.40;;;;;;5054233;28;20017;-72
2023/10/05 02:17:49;;;;;;;6.00;2.78;;;18.10;80.50;;;;;;5054667;28;20037;-72
2023/10/05 02:22:52;;;;;;;6.28;2.80;;;18.10;80.10;;;;;;5054420;28;20041;-73
2023/10/05 02:25:24;;;;;;;9.85;2.67;;;18.10;80.00;;;;;;5054405;28;20018;-73
2023/10/05 02:27:50;;;;;;;4.00;2.40;;;18.10;80.10;;;;;;5053034;28;20036;-72
2023/10/05 02:30:16;;;;;;;4.10;2.55;;;18.10;80.30;;;;;;5054080;28;20040;-72
2023/10/05 02:32:43;;;;;;;6.85;2.40;;;18.10;80.40;;;;;;5052841;28;20078;-73
2023/10/05 02:37:53;;;;;;;4.20;2.22;;;18.10;80.70;;;;;;5054260;28;20044;-72
2023/10/05 02:40:37;;;;;;;3.40;2.22;;;18.00;80.30;;;;;;5053688;28;20028;-72
2023/10/05 02:43:07;;;;;;;6.10;2.40;;;18.00;80.30;;;;;;5053591;28;20029;-73
2023/10/05 02:45:36;;;;;;;4.75;2.88;;;18.00;80.30;;;;;;5053676;28;20108;-72
2023/10/05 02:48:06;;;;;;;6.70;2.30;;;18.00;80.80;;;;;;5053684;28;20500;-73
2023/10/05 02:50:37;;;;;;;6.65;2.28;;;17.90;80.70;;;;;;5053928;28;20029;-72
2023/10/05 02:53:06;;;;;;;6.10;2.63;;;18.00;80.50;;;;;;5053791;28;20029;-73
2023/10/05 02:55:36;;;;;;;5.50;2.28;;;17.90;80.50;;;;;;5053808;28;20384;-73
2023/10/05 02:58:05;;;;;;;4.38;2.47;;;17.90;80.80;;;;;;5053385;28;20492;-72
2023/10/05 03:00:33;;;;;;;5.10;2.55;;;17.90;80.70;;;;;;5053785;28;20025;-72
2023/10/05 03:03:04;;;;;;;5.97;2.40;;;17.90;80.70;;;;;;5053179;28;20028;-72
2023/10/05 03:05:35;;;;;;;5.05;2.65;;;17.90;80.90;;;;;;5053045;28;20068;-73
2023/10/05 03:08:00;;;;;;;7.32;2.42;;;17.90;81.00;;;;;;5053306;28;20075;-72
2023/10/05 03:10:27;;;;;;;5.68;2.40;;;17.90;81.20;;;;;;5053126;28;20485;-73
2023/10/05 03:12:53;;;;;;;5.10;2.70;;;17.80;81.20;;;;;;5053235;28;20115;-73
2023/10/05 03:15:23;;;;;;;6.43;2.60;;;17.80;81.00;;;;;;5053663;28;20021;-71
2023/10/05 03:17:51;;;;;;;5.68;2.60;;;17.80;81.00;;;;;;5053328;28;20052;-72
2023/10/05 03:20:18;;;;;;;4.20;2.30;;;17.80;81.10;;;;;;5053102;28;20380;-72
2023/10/05 03:22:47;;;;;;;4.72;2.25;;;17.80;81.20;;;;;;5053012;28;20017;-73
2023/10/05 03:25:15;;;;;;;5.95;2.80;;;17.80;81.20;;;;;;5052958;28;20061;-73
2023/10/05 03:27:41;;;;;;;10.98;2.80;;;17.80;81.00;;;;;;5053332;28;20017;-73
2023/10/05 03:30:13;;;;;;;5.47;2.30;;;17.80;80.50;;;;;;5052914;28;20498;-72
2023/10/05 03:32:40;;;;;;;3.95;2.33;;;17.80;80.30;;;;;;5053185;28;20490;-73
2023/10/05 03:35:08;;;;;;;4.85;2.60;;;17.70;79.70;;;;;;5052944;28;20333;-73
2023/10/05 03:37:39;;;;;;;4.82;2.33;;;17.80;79.60;;;;;;5051691;28;20415;-73
2023/10/05 03:42:31;;;;;;;6.43;2.67;;;17.70;79.60;;;;;;5053081;28;20388;-73
2023/10/05 03:45:04;;;;;;;5.82;2.20;;;17.70;79.50;;;;;;5052999;28;20102;-73
2023/10/05 03:47:37;;;;;;;3.42;2.25;;;17.70;79.40;;;;;;5052670;28;20103;-72
2023/10/05 03:50:07;;;;;;;4.53;2.60;;;17.70;79.40;;;;;;5052075;28;20499;-72
2023/10/05 03:52:33;;;;;;;6.40;2.35;;;17.70;79.30;;;;;;5052754;28;20115;-73
2023/10/05 03:55:09;;;;;;;6.88;2.50;;;17.70;79.20;;;;;;5052920;28;20096;-72
2023/10/05 03:57:35;;;;;;;6.97;2.28;;;17.70;79.40;;;;;;5053232;28;20032;-72
2023/10/05 04:00:18;;;;;;;7.88;2.53;;;17.70;79.40;;;;;;5052365;28;20060;-73
2023/10/05 04:02:44;;;;;;;5.13;2.72;;;17.70;79.60;;;;;;5052700;28;20110;-73
2023/10/05 04:05:11;;;;;;;7.43;2.80;;;17.60;79.80;;;;;;5052666;28;20023;-72
2023/10/05 04:07:37;;;;;;;4.38;2.22;;;17.60;79.70;;;;;;5052494;28;20127;-72
2023/10/05 04:10:05;;;;;;;4.57;2.70;;;17.70;80.00;;;;;;5052349;28;20021;-73
2023/10/05 04:12:32;;;;;;;3.85;2.28;;;17.70;80.20;;;;;;5052403;28;20387;-72
2023/10/05 04:15:00;;;;;;;4.90;2.58;;;17.60;80.20;;;;;;5052251;28;20017;-73
2023/10/05 04:17:26;;;;;;;5.57;2.60;;;17.60;80.20;;;;;;5052371;28;20071;-72
2023/10/05 04:19:52;;;;;;;4.22;2.60;;;17.60;80.20;;;;;;5052446;28;20021;-73
2023/10/05 04:22:18;;;;;;;5.03;2.55;;;17.60;80.40;;;;;;5052447;28;20112;-72
2023/10/05 04:24:45;;;;;;;5.68;2.75;;;17.50;80.80;;;;;;5052248;28;20075;-72
2023/10/05 04:27:12;;;;;;;3.40;2.38;;;17.60;81.20;;;;;;5052595;28;20028;-73
2023/10/05 04:29:37;;;;;;;6.22;2.60;;;17.50;81.10;;;;;;5052382;28;20025;-72
2023/10/05 04:32:06;;;;;;;9.85;2.75;;;17.50;81.10;;;;;;5052410;28;20503;-72
2023/10/05 04:34:32;;;;;;;3.95;2.47;;;17.40;81.10;;;;;;5050779;28;20408;-72
2023/10/05 04:36:58;;;;;;;10.90;2.90;;;17.40;81.20;;;;;;5052258;28;20067;-72
2023/10/05 04:39:28;;;;;;;5.82;2.75;;;17.40;81.30;;;;;;5052152;28;20056;-72
2023/10/05 04:41:56;;;;;;;6.65;2.60;;;17.40;81.30;;;;;;5051756;28;20128;-72
2023/10/05 04:44:22;;;;;;;4.80;2.38;;;17.40;81.30;;;;;;5052246;28;20017;-72
2023/10/05 04:46:48;;;;;;;7.50;2.80;;;17.40;80.90;;;;;;5051955;28;20033;-73
2023/10/05 04:49:16;;;;;;;4.50;2.47;;;17.40;80.80;;;;;;5052271;28;20376;-72
2023/10/05 04:51:43;;;;;;;5.72;2.65;;;17.40;80.80;;;;;;5052154;28;20029;-72
2023/10/05 04:54:11;;;;;;;7.63;3.00;;;17.40;81.30;;;;;;5052322;28;20051;-72
2023/10/05 04:56:43;;;;;;;5.97;3.00;;;17.30;80.60;;;;;;5051894;28;20159;-72
2023/10/05 05:04:52;;;;;;;3.92;2.33;;;17.30;80.20;;;;;;5055995;28;20040;-72
2023/10/05 05:07:09;;;;;;;4.05;2.47;;;17.40;80.20;;;;;;5055181;28;20033;-72
2023/10/05 05:09:42;;;;;;;5.38;2.53;;;17.40;80.10;;;;;;5055569;28;20378;-72
2023/10/05 05:12:20;;;;;;;3.33;2.22;;;17.40;79.70;;;;;;5055602;28;20021;-72
2023/10/05 05:14:49;;;;;;;5.45;2.40;;;17.40;79.50;;;;;;5055745;28;20021;-72
2023/10/05 05:17:22;;;;;;;4.25;2.83;;;17.40;79.40;;;;;;5055730;28;20036;-72
2023/10/05 05:19:47;;;;;;;;;;;17.40;79.00;;;;;;5056253;28;20043;-72
2023/10/05 05:22:13;;;;;;;7.10;2.90;;;17.40;78.60;;;;;;5055613;28;20435;-72
2023/10/05 05:24:41;;;;;;;7.72;2.55;;;17.40;78.40;;;;;;5055549;28;20104;-72
2023/10/05 05:27:29;;;;;;;9.30;2.33;;;17.50;78.50;;;;;;5055614;28;20032;-71
2023/10/05 05:29:54;;;;;;;4.50;2.50;;;17.50;78.30;;;;;;5055186;28;20031;-72
2023/10/05 05:32:22;;;;;;;4.30;2.38;;;17.50;78.20;;;;;;5055532;28;20115;-72
2023/10/05 05:34:50;;;;;;;6.40;2.17;;;17.50;77.00;;;;;;5055331;28;20017;-72
2023/10/05 05:39:45;;;;;;;6.03;2.80;;;17.50;76.00;;;;;;5055415;28;20059;-72
2023/10/05 05:42:14;;;;;;;5.63;2.42;;;17.50;75.70;;;;;;5054009;28;20029;-72
2023/10/05 05:44:40;;;;;;;6.07;2.25;;;17.60;75.30;;;;;;5053172;28;20036;-72
2023/10/05 05:47:10;;;;;;;7.75;2.25;;;17.60;75.20;;;;;;5053614;28;20041;-72
2023/10/05 05:49:40;;;;;;;5.70;2.50;;;17.70;75.10;;;;;;5055122;28;20032;-72
2023/10/05 05:52:10;;;;;;;4.95;2.45;;;17.70;75.00;;;;;;5054808;28;20496;-72
2023/10/05 05:54:35;;;;;;;9.32;2.67;;;17.70;75.40;;;;;;5054811;28;20021;-72
2023/10/05 05:57:06;;;;;;;7.40;2.85;;;17.70;75.70;;;;;;5054202;28;20083;-72
2023/10/05 05:59:34;;;;;;;5.80;2.22;;;17.70;75.90;;;;;;5054622;28;20112;-72
2023/10/05 06:02:10;;;;;;;5.05;2.42;;;17.80;76.10;;;;;;5054722;28;20029;-72
2023/10/05 06:04:39;;;;;;;4.53;2.60;;;17.80;76.10;;;;;;5052187;28;20464;-72
2023/10/05 06:07:11;;;;;;;5.53;2.80;;;17.80;76.10;;;;;;5054064;28;20424;-72
2023/10/05 06:09:42;;;;;;;5.60;2.45;;;17.80;76.00;;;;;;5053755;28;20104;-72
2023/10/05 06:12:10;;;;;;;8.93;2.53;;;17.90;75.90;;;;;;5054119;28;20025;-71
2023/10/05 06:14:40;;;;;;;4.57;2.55;;;17.90;76.00;;;;;;5052220;28;20473;-73
2023/10/05 06:17:07;;;;;;;6.38;2.47;;;17.90;76.30;;;;;;5054334;28;20043;-72
2023/10/05 06:19:33;;;;;;;5.75;2.63;;;17.90;76.60;;;;;;5054282;28;20388;-72
2023/10/05 06:21:59;;;;;;;6.72;2.17;;;18.00;76.70;;;;;;5054237;28;20025;-72
2023/10/05 06:24:24;;;;;;;5.15;2.40;;;18.00;76.80;;;;;;5054297;28;20098;-72
2023/10/05 06:26:50;;;;;;;3.83;2.25;;;18.00;77.00;;;;;;5054412;28;20415;-72
2023/10/05 06:29:16;;;;;;;4.13;1.98;;;18.00;76.90;;;;;;5054505;28;20021;-72
2023/10/05 06:31:43;;;;;;;4.38;2.13;;;18.00;76.60;;;;;;5054483;28;20033;-72
2023/10/05 06:34:09;;;;;;;7.18;2.63;;;18.10;76.70;;;;;;5053948;28;20013;-72
2023/10/05 06:36:39;;;;;;;4.72;2.28;;;18.00;77.40;;;;;;5054000;28;20067;-71
2023/10/05 06:39:14;;;;;;;5.38;2.40;;;18.10;78.00;;;;;;5052446;28;20068;-72
2023/10/05 06:41:43;;;;;;;5.93;2.42;;;18.10;78.10;;;;;;5053597;28;20504;-71
2023/10/05 06:44:10;;;;;;;3.88;2.30;;;18.20;78.40;;;;;;5053615;28;20025;-72
2023/10/05 06:46:37;;;;;;;4.78;2.40;;;18.20;78.50;;;;;;5053411;28;20469;-71
2023/10/05 06:49:05;;;;;;;7.00;2.75;;;18.20;78.50;;;;;;5053414;28;20033;-72
2023/10/05 06:51:31;;;;;;;5.07;2.35;;;18.20;78.30;;;;;;5052395;28;20048;-72
2023/10/05 06:54:00;;;;;;;5.97;2.20;;;18.30;77.80;;;;;;5053468;28;20440;-71
2023/10/05 06:56:26;;;;;;;12.23;2.90;;;18.30;77.80;;;;;;5052802;28;20440;-72
2023/10/05 06:58:52;;;;;;;9.27;3.08;;;18.40;78.10;;;;;;5053202;28;20025;-71
2023/10/05 07:01:21;;;;;;;7.45;2.63;;;18.40;78.10;;;;;;5053272;28;20023;-71
2023/10/05 07:03:55;;;;;;;7.10;3.00;;;18.40;78.20;;;;;;5051038;28;20104;-71
2023/10/05 07:06:24;;;;;;;7.43;3.00;;;18.50;78.40;;;;;;5050268;28;20551;-72
2023/10/05 07:08:54;;;;;;;6.25;2.70;;;18.50;78.20;;;;;;5053514;28;20025;-72
2023/10/05 07:11:20;;;;;;;7.38;2.70;;;18.50;77.80;;;;;;5053477;28;20033;-71
2023/10/05 07:13:47;;;;;;;8.30;3.25;;;18.60;78.00;;;;;;5053374;28;20021;-72
2023/10/05 07:16:13;;;;;;;6.90;2.72;;;18.60;78.30;;;;;;5053239;28;20499;-71
2023/10/05 07:18:39;;;;;;;6.93;2.65;;;18.70;78.40;;;;;;5053181;28;20059;-72
2023/10/05 07:21:08;;;;;;;5.78;2.38;;;18.70;77.40;;;;;;5053443;28;20056;-71
2023/10/05 07:23:36;;;;;;;11.00;3.67;;;18.80;75.90;;;;;;5053350;28;20489;-71
2023/10/05 07:26:03;;;;;;;5.70;2.90;;;18.80;75.30;;;;;;5053190;28;20029;-71
2023/10/05 07:28:29;;;;;;;6.75;2.53;;;18.90;74.90;;;;;;5051069;28;20056;-71
2023/10/05 07:30:56;;;;;;;7.63;2.25;;;18.90;75.00;;;;;;5052005;28;20037;-70
2023/10/05 07:33:22;;;;;;;4.68;2.72;;;19.00;75.10;;;;;;5052823;28;20124;-71
2023/10/05 07:35:48;;;;;;;5.45;2.80;;;19.00;74.80;;;;;;5051900;28;20028;-72
2023/10/05 07:38:14;;;;;;;6.10;2.95;;;19.00;75.20;;;;;;5050412;28;20029;-70
2023/10/05 07:40:42;;;;;;;6.90;2.30;;;19.10;75.10;;;;;;5050826;28;20032;-70
2023/10/05 07:43:08;;;;;;;4.82;2.40;;;19.20;75.10;;;;;;5050379;28;20456;-72
2023/10/05 07:45:34;;;;;;;7.50;2.80;;;19.20;75.10;;;;;;5050376;28;20538;-71
2023/10/05 07:48:00;;;;;;;8.60;2.75;;;19.20;74.60;;;;;;5049943;28;20159;-71
2023/10/05 07:50:26;;;;;;;7.53;2.78;;;19.30;73.80;;;;;;5050401;28;20458;-71
2023/10/05 07:52:52;;;;;;;8.32;2.83;;;19.40;73.40;;;;;;5052470;28;20029;-71
2023/10/05 07:55:18;;;;;;;5.90;2.50;;;19.40;73.10;;;;;;5051393;28;20524;-70
2023/10/05 07:57:44;;;;;;;7.38;3.10;;;19.40;72.10;;;;;;5052275;28;20036;-71
2023/10/05 08:00:13;;;;;;;6.80;2.80;;;19.50;72.00;;;;;;5052102;28;20013;-71
2023/10/05 08:02:40;;;;;;;7.03;2.60;;;19.50;71.80;;;;;;5052530;28;20392;-71
2023/10/05 08:05:07;;;;;;;9.65;3.03;;;19.60;71.20;;;;;;5052677;28;20480;-71
2023/10/05 08:07:33;;;;;;;6.45;2.75;;;19.60;71.40;;;;;;5052775;28;20033;-71
2023/10/05 08:09:59;;;;;;;5.18;2.60;;;19.60;72.20;;;;;;5052577;28;20479;-71
2023/10/05 08:12:28;;;;;;;7.57;2.45;;;19.70;71.70;;;;;;5051985;28;20025;-71
2023/10/05 08:14:54;;;;;;;4.28;2.67;;;19.70;71.60;;;;;;5052535;28;20021;-72
2023/10/05 08:17:23;;;;;;;7.03;2.10;;;19.70;71.20;;;;;;5052241;28;20041;-73
2023/10/05 08:19:49;;;;;;;4.78;2.53;;;19.80;70.80;;;;;;5052400;28;20389;-71
2023/10/05 08:22:18;;;;;;;3.85;2.30;;;19.80;70.80;;;;;;5052053;28;20032;-71
2023/10/05 08:24:44;;;;;;;6.45;2.72;;;19.90;71.00;;;;;;5052048;28;20021;-72
2023/10/05 08:27:14;;;;;;;4.70;2.75;;;19.90;70.70;;;;;;5048177;28;20029;-72
2023/10/05 08:29:42;;;;;;;8.50;2.95;;;20.00;70.60;;;;;;5046882;28;20112;-72
2023/10/05 08:32:07;;;;;;;8.95;2.70;;;20.00;69.60;;;;;;5050097;28;20025;-72
2023/10/05 08:34:33;;;;;;;6.30;2.80;;;20.10;69.40;;;;;;5050755;28;20036;-71
2023/10/05 08:37:01;;;;;;;6.05;2.58;;;20.10;69.20;;;;;;5052181;28;20029;-71
2023/10/05 08:39:30;;;;;;;7.70;2.67;;;20.10;69.30;;;;;;5054440;28;20028;-72
2023/10/05 08:42:03;;;;;;;4.20;2.15;;;20.20;69.20;;;;;;5053671;28;20385;-72
2023/10/05 08:44:30;;;;;;;6.43;2.70;;;20.30;69.40;;;;;;5055215;28;20484;-72
2023/10/05 08:46:58;;;;;;;5.13;2.85;;;20.30;69.10;;;;;;5036427;28;20064;-72
2023/10/05 08:49:24;;;;;;;11.10;2.50;;;20.30;69.40;;;;;;5033995;28;20385;-71
2023/10/05 08:51:51;;;;;;;4.25;2.47;;;20.40;69.80;;;;;;5035297;28;20028;-72
2023/10/05 08:54:21;;;;;;;8.98;2.75;;;20.50;69.60;;;;;;5034997;28;20461;-73
2023/10/05 08:56:48;;;;;;;3.50;1.90;;;20.50;68.60;;;;;;5035633;28;20056;-72
2023/10/05 08:59:14;;;;;;;34.55;3.38;;;20.60;68.10;;;;;;5035493;28;20096;-71
2023/10/05 09:01:45;;;;;;;4.95;2.72;;;20.60;68.00;;;;;;5035116;28;20025;-72
2023/10/05 09:04:23;;;;;;;3.63;2.22;;;20.70;67.80;;;;;;5044297;28;20385;-72
2023/10/05 09:06:58;;;;;;;4.53;2.90;;;20.80;68.10;;;;;;5055250;28;20465;-72
2023/10/05 09:09:54;;;;;;;4.47;2.38;;;20.80;68.10;;;;;;5070457;28;20033;-72
2023/10/05 09:12:38;;;;;;;6.30;2.30;;;20.80;67.20;;;;;;5054936;28;20052;-73
2023/10/05 09:15:27;;;;;;;4.63;2.33;;;20.90;67.60;;;;;;5054401;28;20025;-71
2023/10/05 09:17:58;;;;;;;5.07;2.40;;;21.00;67.50;;;;;;5054754;28;20041;-73
2023/10/05 09:20:32;;;;;;;9.18;2.47;;;21.00;67.10;;;;;;5054992;28;20025;-72
2023/10/05 09:23:11;;;;;;;7.47;2.40;;;21.10;67.20;;;;;;5055176;28;20108;-72
2023/10/05 09:25:39;;;;;;;4.43;2.72;;;21.20;68.30;;;;;;5054956;28;20021;-72
2023/10/05 09:28:16;;;;;;;3.25;2.13;;;21.20;67.50;;;;;;5054524;28;20491;-71
2023/10/05 09:30:55;;;;;;;9.13;3.25;;;21.30;66.50;;;;;;5054900;28;20554;-71
2023/10/05 09:33:33;;;;;;;6.47;2.85;;;21.30;66.20;;;;;;5054890;28;20032;-70
2023/10/05 09:36:16;;;;;;;7.35;2.90;;;21.40;66.50;;;;;;5054282;28;20385;-70
2023/10/05 09:38:46;;;;;;;4.95;3.20;;;21.50;65.50;;;;;;5054671;28;20504;-69
2023/10/05 09:41:15;;;;;;;8.20;4.35;;;21.50;65.30;;;;;;5054096;28;20024;-70
2023/10/05 09:43:44;;;;;;;6.20;3.00;;;21.60;65.80;;;;;;5054580;28;20044;-70
2023/10/05 09:46:11;;;;;;;4.25;2.38;;;21.70;66.00;;;;;;5054263;28;20159;-70
2023/10/05 09:48:40;;;;;;;4.43;2.83;;;21.70;66.20;;;;;;5053120;28;20048;-70
2023/10/05 09:51:09;;;;;;;4.30;2.78;;;21.70;66.70;;;;;;5053926;28;20028;-70
2023/10/05 09:53:35;;;;;;;8.45;3.05;;;21.80;66.20;;;;;;5053202;28;20039;-70
2023/10/05 09:56:02;;;;;;;7.10;3.15;;;21.80;65.20;;;;;;5054190;28;20063;-72
2023/10/05 09:58:29;;;;;;;5.55;2.78;;;21.90;65.30;;;;;;5054554;28;20029;-70
2023/10/05 10:01:10;;;;;;;5.90;2.80;;;22.00;65.10;;;;;;5054317;28;20469;-71
2023/10/05 10:03:36;;;;;;;3.55;2.50;;;22.00;63.30;;;;;;5049382;28;20062;-71
2023/10/05 10:06:10;;;;;;;4.32;2.40;;;22.10;62.30;;;;;;5054892;28;20029;-70
2023/10/05 10:08:51;;;;;;;4.97;2.60;;;22.10;61.60;;;;;;5054539;28;20424;-71
2023/10/05 10:11:19;;;;;;;6.85;2.78;;;22.20;62.60;;;;;;5054412;28;20489;-71
2023/10/05 10:13:59;;;;;;;6.40;2.90;;;22.20;62.40;;;;;;5054501;28;20373;-72
2023/10/05 10:16:26;;;;;;;7.55;2.92;;;22.20;62.60;;;;;;5054207;28;20025;-71
2023/10/05 10:19:08;;;;;;;3.78;2.58;;;22.20;63.30;;;;;;5054177;28;20056;-71
2023/10/05 10:21:42;;;;;;;5.78;2.92;;;22.20;62.80;;;;;;5054801;28;20030;-71
2023/10/05 10:24:14;;;;;;;4.45;2.38;;;22.30;63.20;;;;;;5053416;28;20546;-71
2023/10/05 10:26:43;;;;;;;;;;;22.40;63.10;;;;;;5043723;28;20497;-70
2023/10/05 10:29:11;;;;;;;4.45;2.60;;;22.40;62.70;;;;;;5035561;28;19909;-69
2023/10/05 10:31:47;;;;;;;5.45;2.60;;;22.50;62.20;;;;;;5033965;28;20025;-70
2023/10/05 10:34:38;;;;;;;5.57;2.60;;;22.50;61.60;;;;;;5029671;28;20032;-72
2023/10/05 10:37:04;;;;;;;9.85;2.22;;;22.50;61.10;;;;;;5024941;28;20051;-71
2023/10/05 10:39:31;;;;;;;4.40;2.72;;;22.60;62.60;;;;;;5031312;28;20386;-72
2023/10/05 10:42:04;;;;;;;4.82;2.38;;;22.60;61.80;;;;;;5032464;28;20075;-73
2023/10/05 10:44:46;;;;;;;5.45;2.78;;;22.70;61.70;;;;;;5034276;28;20083;-72
2023/10/05 10:47:12;;;;;;;4.93;2.20;;;22.70;60.40;;;;;;5033783;28;20061;-73
2023/10/05 10:49:40;;;;;;;3.78;2.50;;;22.70;60.60;;;;;;5052801;28;20029;-73
2023/10/05 10:52:10;;;;;;;7.07;3.28;;;22.70;60.90;;;;;;5053835;28;20177;-73
2023/10/05 10:54:45;;;;;;;4.75;2.60;;;22.70;62.00;;;;;;5054235;28;20021;-72
2023/10/05 10:57:20;;;;;;;6.63;3.00;;;22.70;62.10;;;;;;5053512;28;20120;-72
2023/10/05 10:59:46;;;;;;;7.80;2.90;;;22.70;60.70;;;;;;5053117;28;20481;-72
2023/10/05 11:02:19;;;;;;;4.93;2.60;;;22.70;60.90;;;;;;5053659;28;20372;-72
2023/10/05 11:04:47;;;;;;;7.65;2.72;;;22.70;60.60;;;;;;5053669;28;20376;-73
2023/10/05 11:07:13;;;;;;;10.27;3.00;;;22.70;60.70;;;;;;5053533;28;20055;-72
2023/10/05 11:09:49;;;;;;;5.38;2.45;;;22.80;61.90;;;;;;5053218;28;20017;-72
2023/10/05 11:12:21;;;;;;;8.30;3.35;;;22.80;61.30;;;;;;5053439;28;20031;-72
2023/10/05 11:14:47;;;;;;;4.82;2.90;;;22.80;60.20;;;;;;5053253;28;20025;-73
2023/10/05 11:17:30;;;;;;;5.32;2.42;;;22.80;60.90;;;;;;5053545;28;20492;-72
2023/10/05 11:19:57;;;;;;;4.32;2.53;;;22.80;60.80;;;;;;5053012;28;20481;-71
2023/10/05 11:22:25;;;;;;;3.92;2.90;;;22.80;61.20;;;;;;5051685;28;20476;-73
2023/10/05 11:25:15;;;;;;;4.35;2.50;;;22.90;60.90;;;;;;5052825;28;20373;-72
2023/10/05 11:27:54;;;;;;;4.15;2.80;;;22.80;60.80;;;;;;5052972;28;20036;-73
2023/10/05 11:30:21;;;;;;;6.53;2.53;;;22.90;60.30;;;;;;5052979;28;20021;-73
2023/10/05 11:32:54;;;;;;;4.85;2.20;;;22.90;60.00;;;;;;5052846;28;20021;-72
2023/10/05 11:35:28;;;;;;;4.65;2.80;;;23.00;60.20;;;;;;5052939;28;20013;-72
2023/10/05 11:38:03;;;;;;;8.18;2.97;;;23.00;60.70;;;;;;5052942;28;20036;-73
2023/10/05 11:40:31;;;;;;;5.57;3.05;;;23.10;60.80;;;;;;5052989;28;20021;-73
2023/10/05 11:42:58;;;;;;;7.90;2.63;;;23.10;60.40;;;;;;5052678;28;20025;-73
2023/10/05 11:45:23;;;;;;;4.07;2.08;;;23.10;60.30;;;;;;5053168;28;20021;-73
2023/10/05 11:47:59;;;;;;;6.65;2.78;;;23.10;60.50;;;;;;5052576;28;20553;-74
2023/10/05 11:50:33;;;;;;;3.53;2.42;;;23.20;59.20;;;;;;5052898;28;20048;-73
2023/10/05 11:53:06;;;;;;;6.70;2.80;;;23.20;59.00;;;;;;5052818;28;20027;-73
2023/10/05 11:55:35;;;;;;;6.95;2.80;;;23.20;59.40;;;;;;5052819;28;20381;-73
2023/10/05 11:58:01;;;;;;;5.07;2.70;;;23.20;58.60;;;;;;5052617;28;20064;-73
2023/10/05 12:00:31;;;;;;;3.72;2.53;;;23.20;57.60;;;;;;5052651;28;20096;-74
2023/10/05 12:02:57;;;;;;;12.65;3.20;;;23.20;57.50;;;;;;5052195;28;20523;-74
2023/10/05 12:05:25;;;;;;;7.30;2.65;;;23.30;57.30;;;;;;5052664;28;20021;-73
2023/10/05 12:07:51;;;;;;;6.78;3.28;;;23.30;57.70;;;;;;5052392;28;20553;-74
2023/10/05 12:10:16;;;;;;;4.85;2.92;;;23.30;57.60;;;;;;5052361;28;20100;-72
2023/10/05 12:12:48;;;;;;;5.45;2.88;;;23.30;57.20;;;;;;5051705;28;20104;-72
2023/10/05 12:15:17;;;;;;;3.65;2.50;;;23.40;57.40;;;;;;5052332;28;20512;-73
2023/10/05 12:17:46;;;;;;;6.68;2.88;;;23.40;57.00;;;;;;5051090;28;20419;-73
2023/10/05 12:20:13;;;;;;;6.88;3.05;;;23.40;57.60;;;;;;5051992;28;20028;-74
2023/10/05 12:22:40;;;;;;;5.15;2.80;;;23.40;57.40;;;;;;5052165;28;20043;-73
2023/10/05 12:25:07;;;;;;;5.28;2.97;;;23.40;56.30;;;;;;5052279;28;20021;-74
2023/10/05 12:27:35;;;;;;;10.13;2.92;;;23.40;57.40;;;;;;5051080;28;20359;-73
2023/10/05 12:30:10;;;;;;;6.38;3.08;;;23.50;57.60;;;;;;5052474;28;20021;-73
2023/10/05 12:32:37;;;;;;;6.78;2.95;;;23.50;57.70;;;;;;5052513;28;20061;-73
2023/10/05 12:35:03;;;;;;;6.85;3.13;;;23.50;57.40;;;;;;5052385;28;20017;-74
2023/10/05 12:37:29;;;;;;;6.78;2.90;;;23.60;56.90;;;;;;5052522;28;20397;-75
2023/10/05 12:39:56;;;;;;;4.35;3.03;;;23.60;55.50;;;;;;5052442;28;20074;-74
2023/10/05 12:42:21;;;;;;;8.68;3.38;;;23.60;56.80;;;;;;5052467;28;20037;-74
2023/10/05 12:44:47;;;;;;;5.75;3.00;;;23.70;56.60;;;;;;5052246;28;20079;-73
2023/10/05 12:47:13;;;;;;;4.90;2.97;;;23.60;55.70;;;;;;5051615;28;20044;-74
2023/10/05 12:49:39;;;;;;;5.78;2.83;;;23.60;56.10;;;;;;5051712;28;20029;-75
2023/10/05 12:52:05;;;;;;;4.28;2.90;;;23.70;56.30;;;;;;5051985;28;20075;-73
2023/10/05 12:54:34;;;;;;;5.43;2.95;;;23.60;55.00;;;;;;5051455;28;20029;-73
2023/10/05 12:57:09;;;;;;;5.40;2.75;;;23.60;54.20;;;;;;5048958;28;20500;-73
2023/10/05 12:59:35;;;;;;;5.38;2.90;;;23.50;54.50;;;;;;5048625;28;20048;-78
2023/10/05 13:02:15;;;;;;;5.68;2.95;;;23.50;54.00;;;;;;5048984;28;20413;-75
2023/10/05 13:04:42;;;;;;;5.25;2.60;;;23.40;54.80;;;;;;5049496;28;20385;-73
2023/10/05 13:07:08;;;;;;;5.72;2.70;;;23.40;55.20;;;;;;5052048;28;20029;-73
2023/10/05 13:09:34;;;;;;;8.55;2.67;;;23.40;55.60;;;;;;5051255;28;20100;-74
2023/10/05 13:12:08;;;;;;;5.40;2.72;;;23.50;56.00;;;;;;5051213;28;20029;-75
2023/10/05 13:14:34;;;;;;;6.47;2.75;;;23.50;56.30;;;;;;5051916;28;20032;-72
2023/10/05 13:17:00;;;;;;;4.28;2.88;;;23.50;56.60;;;;;;5051507;28;20029;-74
2023/10/05 13:19:29;;;;;;;4.80;2.80;;;23.50;56.60;;;;;;5034044;28;20505;-72
2023/10/05 13:21:54;;;;;;;5.40;2.75;;;23.50;56.00;;;;;;4128784;28;20020;-74
2023/10/05 13:24:20;;;;;;;7.00;2.78;;;23.50;55.80;;;;;;5053535;28;20021;-73
2023/10/05 13:26:46;;;;;;;4.30;2.90;;;23.60;55.90;;;;;;5054249;28;20384;-74
2023/10/05 13:29:18;;;;;;;3.90;2.55;;;23.50;56.00;;;;;;5054701;28;20541;-74
2023/10/05 13:31:44;;;;;;;7.00;2.67;;;23.60;55.80;;;;;;5052709;28;20389;-73